createdAt,value
2019-04-21T00:01:16.546Z,91.61
2019-04-21T00:03:53.288Z,91.12
2019-04-21T00:06:45.301Z,90.83
2019-04-21T00:11:43.875Z,88.76
2019-04-21T00:14:05.792Z,87.64
2019-04-21T00:16:34.683Z,87.74
2019-04-21T00:19:09.287Z,87.65
2019-04-21T00:21:40.391Z,86.36
2019-04-21T00:24:28.868Z,85.81
2019-04-21T00:27:04.228Z,85.90
2019-04-21T00:29:40.971Z,87.95
2019-04-21T00:32:01.767Z,91.08
2019-04-21T00:34:21.616Z,95.36
2019-04-21T00:37:03.109Z,97.76
2019-04-21T00:42:14.584Z,98.18
2019-04-21T00:44:38.136Z,99.00
2019-04-21T00:47:24.120Z,99.91
2019-04-21T00:49:59.108Z,100.00
2019-04-21T00:52:58.039Z,100.00
2019-04-21T00:55:42.975Z,99.86
2019-04-21T00:58:13.134Z,100.00
2019-04-21T01:00:46.032Z,100.00
2019-04-21T01:03:14.796Z,100.00
2019-04-21T01:05:46.772Z,100.00
2019-04-21T01:08:15.818Z,100.00
2019-04-21T01:10:38.112Z,100.00
2019-04-21T01:13:21.564Z,100.00
2019-04-21T01:15:57.187Z,100.00
2019-04-21T01:18:31.110Z,100.00
2019-04-21T01:20:35.046Z,100.00
2019-04-21T01:23:06.457Z,100.00
2019-04-21T01:25:41.144Z,100.00
2019-04-21T01:28:24.630Z,100.00
2019-04-21T01:30:56.980Z,100.00
2019-04-21T01:33:34.903Z,100.00
2019-04-21T01:36:02.974Z,100.00
2019-04-21T01:38:40.087Z,100.00
2019-04-21T01:41:16.310Z,100.00
2019-04-21T01:43:34.955Z,100.00
2019-04-21T01:46:10.714Z,100.00
2019-04-21T01:48:34.481Z,100.00
2019-04-21T01:51:11.539Z,100.00
2019-04-21T01:53:50.493Z,100.00
2019-04-21T01:56:41.864Z,100.00
2019-04-21T01:59:02.787Z,100.00
2019-04-21T02:01:41.767Z,100.00
2019-04-21T02:04:16.661Z,100.00
2019-04-21T02:06:50.472Z,100.00
2019-04-21T02:09:14.978Z,100.00
2019-04-21T02:11:56.471Z,100.00
2019-04-21T02:14:31.881Z,100.00
2019-04-21T02:16:54.301Z,100.00
2019-04-21T02:19:23.401Z,100.00
2019-04-21T02:21:52.935Z,100.00
2019-04-21T02:24:40.044Z,100.00
2019-04-21T02:26:59.462Z,100.00
2019-04-21T02:29:34.764Z,100.00
2019-04-21T02:34:52.275Z,100.00
2019-04-21T02:40:00.275Z,100.00
2019-04-21T02:42:19.894Z,100.00
2019-04-21T02:47:42.500Z,100.00
2019-04-21T02:52:33.433Z,100.00
2019-04-21T02:54:55.661Z,100.00
2019-04-21T02:57:35.207Z,100.00
2019-04-21T03:00:06.881Z,100.00
2019-04-21T03:03:07.318Z,100.00
2019-04-21T03:05:58.684Z,100.00
2019-04-21T03:16:17.020Z,100.00
2019-04-21T03:18:43.767Z,100.00
2019-04-21T03:21:07.515Z,100.00
2019-04-21T03:23:52.092Z,100.00
2019-04-21T03:26:22.503Z,100.00
2019-04-21T03:28:46.031Z,100.00
2019-04-21T03:36:40.109Z,100.00
2019-04-21T03:38:47.303Z,100.00
2019-04-21T03:41:19.873Z,100.00
2019-04-21T03:43:54.795Z,100.00
2019-04-21T03:51:25.730Z,98.23
2019-04-21T03:54:15.604Z,97.24
2019-04-21T04:12:42.456Z,93.82
2019-04-21T04:15:12.408Z,93.05
2019-04-21T04:17:43.736Z,92.67
2019-04-21T04:20:25.828Z,92.39
2019-04-21T04:22:56.454Z,91.69
2019-04-21T04:25:19.358Z,90.84
2019-04-21T04:27:59.904Z,90.80
2019-04-21T04:30:27.628Z,90.75
2019-04-21T04:32:46.316Z,90.06
2019-04-21T04:35:56.069Z,89.29
2019-04-21T04:37:57.468Z,88.79
2019-04-21T04:53:26.726Z,85.67
2019-04-21T04:55:46.054Z,85.39
2019-04-21T04:58:23.400Z,84.94
2019-04-21T05:00:58.134Z,85.40
2019-04-21T05:03:39.554Z,84.83
2019-04-21T05:19:10.637Z,82.89
2019-04-21T05:23:56.924Z,81.90
2019-04-21T05:26:27.240Z,81.27
2019-04-21T05:28:56.155Z,79.74
2019-04-21T05:31:57.030Z,79.11
2019-04-21T05:34:27.605Z,78.02
2019-04-21T05:37:20.064Z,76.30
2019-04-21T05:39:56.623Z,74.52
2019-04-21T05:42:30.516Z,73.68
2019-04-21T05:45:11.678Z,73.76
2019-04-21T05:48:05.987Z,72.79
2019-04-21T05:50:23.957Z,73.20
2019-04-21T05:52:54.665Z,71.82
2019-04-21T05:55:40.678Z,72.07
2019-04-21T05:58:02.649Z,69.77
2019-04-21T06:00:59.305Z,69.87
2019-04-21T06:03:10.198Z,69.73
2019-04-21T06:05:53.344Z,69.14
2019-04-21T06:08:13.230Z,68.07
2019-04-21T06:10:49.269Z,66.34
2019-04-21T06:13:33.448Z,67.06
2019-04-21T06:18:27.402Z,67.06
2019-04-21T06:20:54.692Z,65.87
2019-04-21T06:23:25.107Z,65.91
2019-04-21T06:26:16.384Z,65.91
2019-04-21T06:28:33.630Z,65.05
2019-04-21T06:33:35.707Z,64.72
2019-04-21T06:39:04.613Z,62.94
2019-04-21T06:41:34.235Z,61.34
2019-04-21T06:44:10.333Z,60.29
2019-04-21T06:46:44.680Z,60.04
2019-04-21T06:49:03.126Z,61.10
2019-04-21T06:51:38.506Z,60.25
2019-04-21T06:54:09.547Z,58.39
2019-04-21T06:56:42.442Z,59.90
2019-04-21T06:59:21.714Z,58.44
2019-04-21T07:01:48.780Z,57.90
2019-04-21T07:07:02.177Z,61.31
2019-04-21T07:09:20.735Z,61.66
2019-04-21T07:11:52.835Z,60.29
2019-04-21T07:14:30.180Z,59.19
2019-04-21T07:16:58.126Z,59.09
2019-04-21T07:19:30.812Z,59.56
2019-04-21T07:21:55.635Z,59.15
2019-04-21T07:24:31.903Z,59.11
2019-04-21T07:27:03.903Z,57.21
2019-04-21T07:29:36.965Z,55.09
2019-04-21T07:32:05.004Z,53.97
2019-04-21T07:34:41.234Z,52.04
2019-04-21T07:37:17.332Z,51.57
2019-04-21T07:39:35.601Z,52.29
2019-04-21T07:42:04.889Z,51.32
2019-04-21T07:44:35.891Z,51.59
2019-04-21T07:47:11.808Z,50.91
2019-04-21T07:50:07.327Z,48.71
2019-04-21T07:53:08.586Z,51.59
2019-04-21T07:57:41.708Z,50.86
2019-04-21T08:00:30.878Z,50.30
2019-04-21T08:02:54.464Z,48.30
2019-04-21T08:05:24.850Z,46.65
2019-04-21T08:10:28.590Z,44.61
2019-04-21T08:13:00.109Z,44.54
2019-04-21T08:15:33.910Z,44.83
2019-04-21T08:18:09.182Z,44.49
2019-04-21T08:20:38.737Z,45.42
2019-04-21T08:23:13.497Z,43.86
2019-04-21T08:25:46.527Z,41.67
2019-04-21T08:28:09.062Z,41.22
2019-04-21T08:30:43.036Z,39.72
2019-04-21T08:33:26.231Z,40.00
2019-04-21T08:38:21.961Z,38.99
2019-04-21T08:40:52.885Z,38.44
2019-04-21T08:43:30.741Z,39.57
2019-04-21T08:45:57.672Z,38.25
2019-04-21T08:48:29.018Z,34.51
2019-04-21T08:51:14.008Z,34.76
2019-04-21T08:53:35.784Z,33.14
2019-04-21T08:56:34.293Z,28.81
2019-04-21T08:59:36.366Z,27.97
2019-04-21T09:02:37.303Z,30.94
2019-04-21T09:05:04.757Z,28.82
2019-04-21T09:07:41.673Z,29.64
2019-04-21T09:10:03.182Z,28.52
2019-04-21T09:12:34.724Z,27.80
2019-04-21T09:15:09.902Z,27.98
2019-04-21T09:17:35.543Z,28.18
2019-04-21T09:20:17.236Z,27.91
2019-04-21T09:22:41.270Z,28.05
2019-04-21T09:25:21.153Z,27.73
2019-04-21T09:27:42.146Z,28.11
2019-04-21T09:30:04.476Z,27.56
2019-04-21T09:32:33.076Z,28.41
2019-04-21T09:35:06.191Z,28.94
2019-04-21T09:37:44.354Z,27.33
2019-04-21T09:40:06.846Z,27.70
2019-04-21T09:42:44.345Z,27.39
2019-04-21T09:45:10.549Z,27.93
2019-04-21T09:47:47.056Z,28.24
2019-04-21T09:50:13.339Z,27.21
2019-04-21T09:52:49.798Z,28.25
2019-04-21T09:55:20.675Z,27.11
2019-04-21T09:57:53.547Z,28.56
2019-04-21T10:00:25.373Z,26.64
2019-04-21T10:03:00.923Z,27.76
2019-04-21T10:05:25.063Z,27.81
2019-04-21T10:07:55.228Z,27.51
2019-04-21T10:10:25.311Z,28.23
2019-04-21T10:12:56.294Z,30.49
2019-04-21T10:15:27.867Z,27.59
2019-04-21T10:18:00.703Z,27.10
2019-04-21T10:20:30.934Z,28.79
2019-04-21T10:23:00.636Z,28.33
2019-04-21T10:25:30.727Z,30.73
2019-04-21T10:28:01.329Z,29.70
2019-04-21T10:30:32.830Z,28.86
2019-04-21T10:33:03.927Z,31.52
2019-04-21T10:35:35.257Z,32.51
2019-04-21T10:38:16.994Z,31.35
2019-04-21T10:40:37.419Z,30.29
2019-04-21T10:43:10.082Z,28.68
2019-04-21T10:45:39.212Z,27.33
2019-04-21T10:48:10.671Z,27.83
2019-04-21T10:50:41.157Z,29.14
2019-04-21T10:53:16.701Z,29.67
2019-04-21T10:56:00.499Z,30.06
2019-04-21T10:58:40.361Z,31.08
2019-04-21T11:01:31.485Z,33.93
2019-04-21T11:04:27.802Z,34.13
2019-04-21T11:06:57.130Z,34.29
2019-04-21T11:09:26.575Z,33.51
2019-04-21T11:11:57.820Z,33.12
2019-04-21T11:14:27.614Z,32.75
2019-04-21T11:16:58.593Z,32.40
2019-04-21T11:19:28.751Z,31.78
2019-04-21T11:21:58.835Z,32.53
2019-04-21T11:24:29.191Z,32.42
2019-04-21T11:27:00.128Z,32.58
2019-04-21T11:29:31.042Z,31.06
2019-04-21T11:32:01.052Z,31.39
2019-04-21T11:34:31.470Z,30.74
2019-04-21T11:37:03.857Z,30.66
2019-04-21T11:39:41.995Z,30.08
2019-04-21T11:42:13.036Z,30.99
2019-04-21T11:44:42.939Z,31.62
2019-04-21T11:47:22.722Z,32.35
2019-04-21T11:49:52.890Z,32.13
2019-04-21T11:52:22.895Z,30.31
2019-04-21T11:54:53.163Z,29.59
2019-04-21T11:57:27.991Z,28.47
2019-04-21T11:59:57.607Z,28.80
2019-04-21T12:02:27.693Z,28.11
2019-04-21T12:04:59.500Z,28.64
2019-04-21T12:07:29.406Z,30.22
2019-04-21T12:09:59.678Z,30.64
2019-04-21T12:12:29.660Z,32.17
2019-04-21T12:14:59.898Z,34.48
2019-04-21T12:17:30.038Z,34.44
2019-04-21T12:20:01.042Z,33.81
2019-04-21T12:22:33.844Z,34.52
2019-04-21T12:25:03.053Z,33.61
2019-04-21T12:27:34.080Z,33.21
2019-04-21T12:30:04.142Z,33.48
2019-04-21T12:32:51.992Z,33.73
2019-04-21T12:35:21.975Z,33.13
2019-04-21T12:37:53.104Z,32.58
2019-04-21T12:40:24.523Z,32.73
2019-04-21T12:42:54.893Z,30.52
2019-04-21T12:45:26.017Z,30.26
2019-04-21T12:47:56.081Z,28.63
2019-04-21T12:50:26.035Z,26.98
2019-04-21T12:52:56.000Z,25.84
2019-04-21T12:55:30.579Z,24.81
2019-04-21T12:57:57.327Z,24.49
2019-04-21T13:00:27.296Z,24.55
2019-04-21T13:02:58.150Z,25.22
2019-04-21T13:05:27.862Z,27.18
2019-04-21T13:07:57.655Z,30.51
2019-04-21T13:10:28.443Z,29.29
2019-04-21T13:12:59.671Z,29.71
2019-04-21T13:15:29.487Z,31.04
2019-04-21T13:18:00.508Z,31.30
2019-04-21T13:20:30.363Z,29.70
2019-04-21T13:23:00.176Z,27.85
2019-04-21T13:25:30.194Z,29.23
2019-04-21T13:28:00.907Z,29.59
2019-04-21T13:30:30.770Z,29.75
2019-04-21T13:33:00.914Z,31.81
2019-04-21T13:35:31.015Z,31.47
2019-04-21T13:38:00.946Z,31.31
2019-04-21T13:41:03.897Z,32.38
2019-04-21T13:43:19.136Z,32.90
2019-04-21T13:45:49.924Z,33.62
2019-04-21T13:48:19.708Z,34.01
2019-04-21T13:50:49.510Z,33.25
2019-04-21T13:53:20.891Z,33.51
2019-04-21T13:55:50.945Z,33.18
2019-04-21T13:58:22.017Z,35.12
2019-04-21T14:00:54.200Z,35.71
2019-04-21T14:03:26.292Z,35.02
2019-04-21T14:05:56.237Z,36.28
2019-04-21T14:08:27.441Z,37.49
2019-04-21T14:10:57.590Z,38.48
2019-04-21T14:13:27.285Z,39.87
2019-04-21T14:15:57.936Z,40.92
2019-04-21T14:18:28.900Z,41.10
2019-04-21T14:21:00.922Z,41.72
2019-04-21T14:23:37.891Z,42.46
2019-04-21T14:26:03.777Z,43.07
2019-04-21T14:28:33.710Z,42.74
2019-04-21T14:31:04.298Z,43.13
2019-04-21T14:33:34.281Z,43.76
2019-04-21T14:36:05.310Z,43.84
2019-04-21T14:38:36.536Z,42.38
2019-04-21T14:41:06.265Z,42.81
2019-04-21T14:43:36.226Z,43.68
2019-04-21T14:46:21.468Z,44.72
2019-04-21T14:49:13.048Z,43.41
2019-04-21T14:51:53.103Z,43.85
2019-04-21T14:54:46.980Z,42.90
2019-04-21T14:57:17.228Z,42.60
2019-04-21T14:59:46.993Z,41.84
2019-04-21T15:02:18.142Z,40.09
2019-04-21T15:04:49.415Z,39.48
2019-04-21T15:07:19.273Z,39.30
2019-04-21T15:10:01.228Z,40.88
2019-04-21T15:12:21.918Z,42.43
2019-04-21T15:14:51.936Z,43.21
2019-04-21T15:17:23.003Z,44.24
2019-04-21T15:19:59.661Z,44.04
2019-04-21T15:22:26.086Z,45.11
2019-04-21T15:24:56.347Z,47.18
2019-04-21T15:27:27.625Z,49.17
2019-04-21T15:29:58.516Z,50.01
2019-04-21T15:32:28.611Z,51.00
2019-04-21T15:34:58.470Z,51.18
2019-04-21T15:37:29.466Z,50.80
2019-04-21T15:40:11.351Z,51.61
2019-04-21T15:42:31.027Z,57.07
2019-04-21T15:45:02.919Z,64.00
2019-04-21T15:47:33.803Z,66.07
2019-04-21T15:50:10.198Z,66.30
2019-04-21T15:52:35.825Z,67.76
2019-04-21T15:55:14.662Z,68.55
2019-04-21T15:57:54.354Z,69.59
2019-04-21T16:00:36.299Z,70.54
2019-04-21T16:03:06.804Z,70.12
2019-04-21T16:05:37.139Z,68.83
2019-04-21T16:08:07.927Z,67.57
2019-04-21T16:10:45.210Z,66.57
2019-04-21T16:13:09.846Z,65.36
2019-04-21T16:15:40.930Z,65.74
2019-04-21T16:18:12.075Z,66.46
2019-04-21T16:20:43.955Z,66.58
2019-04-21T16:23:14.920Z,66.29
2019-04-21T16:25:46.324Z,66.12
2019-04-21T16:28:17.296Z,65.38
2019-04-21T16:30:48.508Z,67.91
2019-04-21T16:33:18.848Z,68.40
2019-04-21T16:35:49.516Z,68.96
2019-04-21T16:38:21.629Z,69.94
2019-04-21T16:40:57.465Z,71.23
2019-04-21T16:43:23.123Z,72.71
2019-04-21T16:45:52.991Z,74.17
2019-04-21T16:48:25.375Z,75.08
2019-04-21T16:50:55.831Z,76.34
2019-04-21T16:53:30.305Z,77.67
2019-04-21T16:56:04.878Z,77.50
2019-04-21T16:58:43.070Z,78.42
2019-04-21T17:01:18.762Z,78.70
2019-04-21T17:03:50.512Z,78.61
2019-04-21T17:06:20.346Z,78.27
2019-04-21T17:08:52.623Z,78.43
2019-04-21T17:11:27.252Z,78.55
2019-04-21T17:13:56.431Z,79.14
2019-04-21T17:17:03.005Z,79.86
2019-04-21T17:19:09.153Z,80.63
2019-04-21T17:21:30.073Z,81.95
2019-04-21T17:24:00.188Z,82.66
2019-04-21T17:26:31.348Z,82.77
2019-04-21T17:29:02.648Z,82.13
2019-04-21T17:31:33.765Z,81.80
2019-04-21T17:34:10.050Z,80.84
2019-04-21T17:36:37.127Z,80.63
2019-04-21T17:39:07.099Z,79.76
2019-04-21T17:41:42.504Z,78.82
2019-04-21T17:44:08.821Z,78.10
2019-04-21T17:46:47.770Z,77.54
2019-04-21T17:49:10.849Z,76.66
2019-04-21T17:52:16.367Z,75.97
2019-04-21T17:54:50.728Z,75.72
2019-04-21T17:57:36.457Z,75.42
2019-04-21T18:00:18.809Z,74.01
2019-04-21T18:02:44.478Z,73.48
2019-04-21T18:05:19.320Z,73.50
2019-04-21T18:07:43.353Z,73.27
2019-04-21T18:10:17.472Z,73.34
2019-04-21T18:12:43.668Z,73.58
2019-04-21T18:15:21.986Z,73.39
2019-04-21T18:17:34.521Z,73.68
2019-04-21T18:20:06.011Z,73.83
2019-04-21T18:23:02.359Z,73.37
2019-04-21T18:25:45.285Z,72.75
2019-04-21T18:28:04.919Z,71.98
2019-04-21T18:30:52.089Z,72.35
2019-04-21T18:33:29.907Z,71.75
2019-04-21T18:36:13.502Z,72.76
2019-04-21T18:39:09.740Z,72.14
2019-04-21T18:41:32.208Z,71.80
2019-04-21T18:47:09.554Z,77.34
2019-04-21T18:49:40.361Z,81.15
2019-04-21T18:52:40.561Z,84.63
2019-04-21T18:55:05.264Z,86.13
2019-04-21T18:57:35.306Z,89.10
2019-04-21T18:59:57.474Z,90.82
2019-04-21T19:02:31.680Z,93.44
2019-04-21T19:05:05.338Z,92.87
2019-04-21T19:07:48.662Z,93.80
2019-04-21T19:13:21.804Z,95.72
2019-04-21T19:15:20.346Z,96.99
2019-04-21T19:20:32.895Z,98.38
2019-04-21T19:22:57.234Z,99.06
2019-04-21T19:25:31.484Z,99.21
2019-04-21T19:28:04.619Z,98.60
2019-04-21T19:30:46.752Z,98.66
2019-04-21T19:33:09.162Z,99.46
2019-04-21T19:35:23.616Z,100.00
2019-04-21T19:37:59.412Z,100.00
2019-04-21T19:40:44.863Z,100.00
2019-04-21T19:43:06.533Z,100.00
2019-04-21T19:45:45.096Z,100.00
2019-04-21T19:48:18.422Z,100.00
2019-04-21T19:50:50.245Z,100.00
2019-04-21T19:53:21.111Z,99.87
2019-04-21T19:55:36.317Z,100.00
2019-04-21T19:58:07.215Z,100.00
2019-04-21T20:00:37.229Z,99.28
2019-04-21T20:03:08.531Z,99.29
2019-04-21T20:05:46.792Z,99.66
2019-04-21T20:08:23.751Z,99.88
2019-04-21T20:10:59.417Z,98.66
2019-04-21T20:13:51.390Z,98.52
2019-04-21T20:16:03.985Z,98.59
2019-04-21T20:18:27.397Z,99.08
2019-04-21T20:20:50.199Z,98.49
2019-04-21T20:23:27.702Z,98.26
2019-04-21T20:25:55.884Z,97.61
2019-04-21T20:28:39.719Z,96.83
2019-04-21T20:31:14.614Z,96.04
2019-04-21T20:36:23.800Z,96.35
2019-04-21T20:38:40.360Z,95.66
2019-04-21T20:41:19.774Z,95.68
2019-04-21T20:43:54.264Z,95.36
2019-04-21T20:46:15.619Z,95.90
2019-04-21T20:48:51.254Z,96.97
2019-04-21T20:51:31.358Z,96.53
2019-04-21T20:53:53.746Z,96.48
2019-04-21T20:56:19.084Z,96.17
2019-04-21T20:59:00.079Z,96.04
2019-04-21T21:01:39.362Z,96.12
2019-04-21T21:04:04.789Z,95.52
2019-04-21T21:06:31.599Z,94.88
2019-04-21T21:09:04.873Z,94.22
2019-04-21T21:11:36.737Z,93.71
2019-04-21T21:14:11.710Z,93.28
2019-04-21T21:16:47.685Z,93.68
2019-04-21T21:19:26.741Z,93.26
2019-04-21T21:21:40.415Z,93.11
2019-04-21T21:24:15.868Z,93.60
2019-04-21T21:26:49.586Z,94.07
2019-04-21T21:29:20.770Z,94.31
2019-04-21T21:31:59.961Z,94.14
2019-04-21T21:34:27.891Z,94.22
2019-04-21T21:36:53.963Z,94.07
2019-04-21T21:39:23.341Z,94.05
2019-04-21T21:41:45.180Z,94.32
2019-04-21T21:44:17.863Z,93.87
2019-04-21T21:46:58.898Z,94.06
2019-04-21T21:49:29.428Z,93.96
2019-04-21T21:51:59.163Z,94.47
2019-04-21T21:54:18.058Z,93.83
2019-04-21T21:56:47.826Z,93.48
2019-04-21T21:59:22.824Z,93.32
2019-04-21T22:01:52.580Z,93.04
2019-04-21T22:04:26.870Z,92.40
2019-04-21T22:06:58.461Z,92.59
2019-04-21T22:09:24.326Z,92.05
2019-04-21T22:11:57.832Z,91.82
2019-04-21T22:14:33.186Z,92.19
2019-04-21T22:17:20.332Z,91.93
2019-04-21T22:19:55.923Z,91.71
2019-04-21T22:22:21.362Z,91.44
2019-04-21T22:24:46.923Z,90.75
2019-04-21T22:27:05.389Z,90.11
2019-04-21T22:29:43.017Z,90.24
2019-04-21T22:32:13.906Z,90.25
2019-04-21T22:34:46.761Z,89.58
2019-04-21T22:37:26.264Z,89.63
2019-04-21T22:39:54.395Z,89.41
2019-04-21T22:42:21.400Z,89.33
2019-04-21T22:44:44.052Z,89.17
2019-04-21T22:47:18.599Z,89.01
2019-04-21T22:49:46.503Z,89.20
2019-04-21T22:52:22.148Z,89.76
2019-04-21T22:54:49.402Z,89.93
2019-04-21T22:57:23.341Z,89.91
2019-04-21T22:59:57.319Z,90.33
2019-04-21T23:02:29.454Z,90.15
2019-04-21T23:04:58.146Z,90.02
2019-04-21T23:07:26.606Z,90.19
2019-04-21T23:09:58.981Z,90.43
2019-04-21T23:12:34.565Z,90.95
2019-04-21T23:15:06.236Z,90.32
2019-04-21T23:17:50.662Z,90.23
2019-04-21T23:20:22.446Z,89.81
2019-04-21T23:23:00.933Z,89.41
2019-04-21T23:25:23.295Z,89.70
2019-04-21T23:27:56.177Z,89.83
2019-04-21T23:30:34.085Z,89.94
2019-04-21T23:32:50.790Z,89.37
2019-04-21T23:35:22.735Z,89.09
2019-04-21T23:37:54.291Z,88.97
2019-04-21T23:40:20.252Z,88.91
2019-04-21T23:42:49.129Z,89.19
2019-04-21T23:45:25.257Z,89.31
2019-04-21T23:48:01.647Z,89.01
2019-04-21T23:50:35.211Z,87.76
2019-04-21T23:52:55.327Z,86.93
2019-04-21T23:55:25.470Z,86.40
2019-04-21T23:58:06.124Z,86.58
